createdAt,value
2022-08-02T00:01:50.512Z,19.00
2022-08-02T00:04:19.042Z,19.00
2022-08-02T00:06:55.686Z,19.00
2022-08-02T00:09:25.702Z,19.00
2022-08-02T00:11:54.084Z,19.00
2022-08-02T00:14:22.439Z,19.00
2022-08-02T00:16:50.497Z,19.00
2022-08-02T00:19:18.770Z,19.00
2022-08-02T00:21:47.081Z,19.00
2022-08-02T00:24:28.769Z,19.00
2022-08-02T00:26:58.691Z,19.00
2022-08-02T00:29:26.931Z,18.90
2022-08-02T00:31:55.265Z,19.00
2022-08-02T00:34:30.153Z,18.90
2022-08-02T00:36:59.224Z,19.00
2022-08-02T00:39:34.701Z,18.90
2022-08-02T00:42:03.780Z,18.90
2022-08-02T00:44:32.034Z,18.90
2022-08-02T00:47:02.133Z,18.80
2022-08-02T00:49:30.395Z,18.80
2022-08-02T00:51:58.491Z,18.80
2022-08-02T00:54:27.925Z,18.80
2022-08-02T00:56:56.089Z,18.80
2022-08-02T00:59:24.163Z,18.90
2022-08-02T01:01:57.299Z,18.90
2022-08-02T01:04:31.042Z,18.80
2022-08-02T01:07:00.308Z,18.80
2022-08-02T01:09:29.738Z,18.80
2022-08-02T01:11:57.837Z,18.80
2022-08-02T01:14:31.199Z,18.80
2022-08-02T01:17:07.687Z,18.80
2022-08-02T01:19:40.708Z,18.80
2022-08-02T01:23:02.947Z,18.80
2022-08-02T01:25:58.993Z,18.80
2022-08-02T01:28:35.956Z,18.80
2022-08-02T01:31:11.498Z,18.80
2022-08-02T01:33:46.921Z,18.80
2022-08-02T01:36:15.585Z,18.80
2022-08-02T01:38:47.332Z,18.80
2022-08-02T01:41:21.051Z,18.70
2022-08-02T01:43:54.797Z,18.80
2022-08-02T01:46:24.114Z,18.80
2022-08-02T01:48:55.403Z,18.80
2022-08-02T01:51:39.814Z,18.80
2022-08-02T01:54:10.714Z,18.80
2022-08-02T01:56:43.169Z,18.80
2022-08-02T01:59:17.151Z,18.80
2022-08-02T02:01:47.043Z,18.80
2022-08-02T02:04:17.045Z,18.70
2022-08-02T02:06:47.304Z,18.60
2022-08-02T02:09:17.112Z,18.60
2022-08-02T02:12:09.410Z,18.60
2022-08-02T02:14:38.400Z,18.60
2022-08-02T02:17:09.197Z,18.60
2022-08-02T02:20:01.026Z,18.50
2022-08-02T02:22:29.340Z,18.50
2022-08-02T02:24:57.764Z,18.60
2022-08-02T02:27:26.562Z,18.50
2022-08-02T02:29:57.488Z,18.50
2022-08-02T02:32:28.430Z,18.50
2022-08-02T02:34:57.397Z,18.50
2022-08-02T02:37:27.620Z,18.50
2022-08-02T02:39:59.171Z,18.50
2022-08-02T02:42:33.791Z,18.50
2022-08-02T02:45:04.307Z,18.50
2022-08-02T02:47:40.509Z,18.50
2022-08-02T02:50:11.066Z,18.50
2022-08-02T02:52:41.084Z,18.40
2022-08-02T02:55:11.106Z,18.50
2022-08-02T02:57:40.023Z,18.50
2022-08-02T03:00:12.598Z,18.50
2022-08-02T03:02:43.320Z,18.50
2022-08-02T03:05:13.298Z,18.50
2022-08-02T03:07:42.753Z,18.50
2022-08-02T03:10:12.027Z,18.50
2022-08-02T03:12:40.277Z,18.50
2022-08-02T03:15:13.962Z,18.40
2022-08-02T03:17:43.244Z,18.40
2022-08-02T03:20:14.069Z,18.30
2022-08-02T03:22:42.654Z,18.30
2022-08-02T03:25:13.377Z,18.30
2022-08-02T03:27:41.759Z,18.20
2022-08-02T03:30:13.205Z,18.20
2022-08-02T03:32:43.780Z,18.10
2022-08-02T03:35:17.520Z,18.00
2022-08-02T03:37:49.439Z,18.00
2022-08-02T03:40:18.685Z,17.90
2022-08-02T03:42:47.491Z,17.90
2022-08-02T03:45:17.393Z,17.90
2022-08-02T03:47:46.068Z,17.80
2022-08-02T03:50:14.702Z,17.80
2022-08-02T03:52:44.943Z,17.80
2022-08-02T03:55:14.345Z,17.70
2022-08-02T03:57:43.829Z,17.70
2022-08-02T04:00:14.338Z,17.70
2022-08-02T04:02:43.903Z,17.80
2022-08-02T04:05:12.321Z,17.90
2022-08-02T04:08:33.657Z,18.20
2022-08-02T04:10:28.746Z,18.50
2022-08-02T04:12:58.048Z,18.90
2022-08-02T04:15:26.361Z,19.20
2022-08-02T04:17:57.767Z,19.50
2022-08-02T04:20:29.953Z,19.80
2022-08-02T04:23:02.751Z,20.00
2022-08-02T04:25:36.441Z,20.00
2022-08-02T04:28:17.454Z,19.80
2022-08-02T04:30:47.771Z,19.40
2022-08-02T04:33:17.949Z,19.10
2022-08-02T04:35:48.426Z,18.80
2022-08-02T04:38:17.213Z,18.70
2022-08-02T04:40:56.306Z,18.60
2022-08-02T04:43:25.214Z,18.60
2022-08-02T04:45:55.582Z,18.60
2022-08-02T04:48:27.113Z,18.50
2022-08-02T04:50:55.298Z,18.60
2022-08-02T04:53:24.610Z,18.50
2022-08-02T04:55:52.676Z,18.50
2022-08-02T05:01:08.882Z,18.40
2022-08-02T05:03:38.445Z,18.40
2022-08-02T05:06:18.617Z,18.50
2022-08-02T05:08:52.383Z,18.60
2022-08-02T05:11:22.304Z,18.70
2022-08-02T05:13:59.423Z,18.80
2022-08-02T05:16:31.505Z,18.90
2022-08-02T05:19:02.243Z,19.00
2022-08-02T05:21:31.856Z,19.30
2022-08-02T05:24:00.367Z,19.50
2022-08-02T05:26:28.485Z,19.60
2022-08-02T05:28:56.620Z,19.80
2022-08-02T05:31:24.813Z,19.80
2022-08-02T05:33:52.926Z,19.80
2022-08-02T05:36:22.591Z,20.00
2022-08-02T05:38:51.810Z,20.30
2022-08-02T05:41:20.532Z,20.60
2022-08-02T05:43:50.539Z,20.80
2022-08-02T05:46:19.712Z,21.80
2022-08-02T05:48:47.764Z,22.50
2022-08-02T05:51:24.417Z,23.50
2022-08-02T05:53:59.379Z,23.90
2022-08-02T05:56:34.185Z,24.30
2022-08-02T05:59:06.170Z,24.90
2022-08-02T06:01:37.662Z,25.00
2022-08-02T06:04:08.597Z,24.70
2022-08-02T06:06:39.195Z,25.60
2022-08-02T06:09:11.878Z,25.60
2022-08-02T06:12:02.638Z,25.70
2022-08-02T06:14:33.910Z,25.80
2022-08-02T06:17:05.008Z,26.10
2022-08-02T06:19:46.848Z,26.00
2022-08-02T06:22:31.551Z,26.10
2022-08-02T06:25:06.510Z,26.60
2022-08-02T06:27:41.342Z,26.50
2022-08-02T06:30:11.306Z,26.60
2022-08-02T06:32:39.989Z,26.40
2022-08-02T06:35:10.476Z,26.70
2022-08-02T06:37:49.129Z,27.00
2022-08-02T06:40:26.581Z,26.80
2022-08-02T06:43:06.690Z,26.40
2022-08-02T06:45:35.725Z,25.40
2022-08-02T06:48:04.752Z,25.70
2022-08-02T06:50:33.580Z,25.90
2022-08-02T06:53:03.075Z,25.80
2022-08-02T06:55:32.247Z,26.10
2022-08-02T06:58:11.759Z,26.50
2022-08-02T07:00:40.273Z,26.60
2022-08-02T07:03:08.382Z,26.00
2022-08-02T07:05:39.176Z,26.60
2022-08-02T07:08:09.052Z,26.70
2022-08-02T07:10:37.223Z,26.60
2022-08-02T07:13:08.111Z,25.40
2022-08-02T07:15:36.632Z,25.50
2022-08-02T07:18:05.030Z,25.40
2022-08-02T07:20:33.461Z,25.60
2022-08-02T07:23:02.842Z,25.50
2022-08-02T07:26:02.947Z,25.50
2022-08-02T07:28:24.228Z,25.50
2022-08-02T07:30:55.840Z,25.50
2022-08-02T07:33:38.695Z,25.20
2022-08-02T07:36:09.877Z,25.10
2022-08-02T07:38:45.559Z,25.30
2022-08-02T07:41:15.170Z,25.50
2022-08-02T07:43:43.223Z,25.80
2022-08-02T07:46:11.344Z,26.20
2022-08-02T07:48:39.412Z,25.60
2022-08-02T07:51:07.592Z,25.30
2022-08-02T07:53:51.260Z,25.20
2022-08-02T07:56:28.528Z,25.60
2022-08-02T07:58:56.839Z,25.50
2022-08-02T08:01:25.029Z,25.20
2022-08-02T08:03:53.322Z,25.20
2022-08-02T08:06:28.757Z,25.30
2022-08-02T08:08:57.452Z,25.20
2022-08-02T08:11:27.283Z,24.60
2022-08-02T08:13:55.527Z,24.20
2022-08-02T08:16:26.181Z,24.10
2022-08-02T08:18:56.870Z,23.90
2022-08-02T08:21:25.027Z,23.80
2022-08-02T08:23:53.279Z,23.60
2022-08-02T08:26:21.546Z,23.70
2022-08-02T08:28:51.009Z,23.50
2022-08-02T08:31:19.214Z,23.30
2022-08-02T08:33:47.249Z,23.30
2022-08-02T08:36:16.600Z,23.30
2022-08-02T08:38:44.984Z,23.10
2022-08-02T08:41:13.002Z,23.10
2022-08-02T08:43:41.170Z,22.90
2022-08-02T08:46:12.156Z,23.00
2022-08-02T08:48:44.471Z,22.80
2022-08-02T08:51:17.405Z,22.80
2022-08-02T08:53:50.249Z,22.90
2022-08-02T08:56:18.631Z,23.10
2022-08-02T08:58:48.439Z,22.80
2022-08-02T09:01:21.483Z,22.80
2022-08-02T09:03:49.633Z,22.90
2022-08-02T09:06:17.686Z,23.10
2022-08-02T09:08:45.909Z,23.10
2022-08-02T09:11:16.507Z,22.80
2022-08-02T09:13:52.821Z,22.70
2022-08-02T09:16:34.765Z,22.80
2022-08-02T09:19:17.515Z,22.70
2022-08-02T09:21:45.968Z,22.60
2022-08-02T09:24:18.723Z,22.70
2022-08-02T09:26:47.640Z,22.80
2022-08-02T09:29:16.629Z,22.90
2022-08-02T09:31:49.953Z,23.10
2022-08-02T09:34:19.910Z,23.30
2022-08-02T09:36:48.769Z,23.40
2022-08-02T09:39:23.753Z,23.60
2022-08-02T09:42:08.318Z,23.80
2022-08-02T09:44:36.585Z,23.80
2022-08-02T09:47:16.536Z,23.70
2022-08-02T09:49:52.644Z,23.50
2022-08-02T09:52:43.153Z,23.60
2022-08-02T09:55:13.128Z,23.80
2022-08-02T09:57:41.492Z,23.90
2022-08-02T10:00:16.249Z,23.90
2022-08-02T10:03:09.030Z,23.90
2022-08-02T10:05:50.847Z,24.00
2022-08-02T10:08:25.809Z,24.10
2022-08-02T10:11:00.524Z,24.30
2022-08-02T10:13:31.248Z,24.30
2022-08-02T10:15:59.506Z,24.50
2022-08-02T10:18:38.793Z,24.50
2022-08-02T10:21:11.679Z,24.50
2022-08-02T10:23:42.262Z,24.60
2022-08-02T10:26:11.888Z,24.70
2022-08-02T10:28:40.273Z,24.80
2022-08-02T10:31:10.794Z,25.00
2022-08-02T10:33:40.751Z,25.20
2022-08-02T10:36:10.275Z,25.40
2022-08-02T10:38:39.061Z,25.10
2022-08-02T10:41:08.076Z,24.80
2022-08-02T10:43:45.433Z,24.70
2022-08-02T10:46:31.880Z,24.70
2022-08-02T10:49:37.460Z,24.60
2022-08-02T10:52:09.376Z,24.70
2022-08-02T10:54:39.860Z,24.70
2022-08-02T10:57:23.119Z,24.50
2022-08-02T10:59:53.017Z,24.80
2022-08-02T11:02:39.805Z,24.90
2022-08-02T11:05:15.544Z,25.00
2022-08-02T11:07:47.537Z,24.90
2022-08-02T11:10:38.621Z,24.80
2022-08-02T11:13:09.451Z,24.80
2022-08-02T11:15:51.294Z,24.70
2022-08-02T11:18:19.495Z,24.70
2022-08-02T11:20:49.005Z,24.80
2022-08-02T11:23:44.525Z,24.30
2022-08-02T11:26:45.932Z,24.40
2022-08-02T11:29:15.898Z,24.70
2022-08-02T11:31:46.582Z,24.80
2022-08-02T11:34:36.849Z,25.00
2022-08-02T11:37:04.339Z,25.10
2022-08-02T11:39:32.456Z,25.40
2022-08-02T11:42:03.222Z,25.10
2022-08-02T11:44:40.819Z,25.00
2022-08-02T11:47:09.263Z,24.70
2022-08-02T11:49:38.563Z,24.70
2022-08-02T11:52:11.169Z,24.80
2022-08-02T11:54:44.178Z,24.90
2022-08-02T11:57:18.675Z,25.00
2022-08-02T11:59:48.769Z,25.10
2022-08-02T12:02:18.760Z,25.40
2022-08-02T12:04:57.341Z,25.50
2022-08-02T12:07:35.122Z,25.70
2022-08-02T12:10:06.677Z,25.70
2022-08-02T12:12:34.939Z,25.90
2022-08-02T12:15:02.974Z,25.90
2022-08-02T12:17:48.331Z,25.80
2022-08-02T12:20:17.273Z,25.80
2022-08-02T12:22:46.817Z,25.70
2022-08-02T12:25:34.883Z,25.80
2022-08-02T12:28:20.427Z,25.80
2022-08-02T12:30:52.625Z,26.10
2022-08-02T12:33:21.457Z,26.00
2022-08-02T12:35:49.593Z,26.20
2022-08-02T12:38:18.973Z,26.20
2022-08-02T12:40:47.297Z,26.40
2022-08-02T12:43:20.298Z,26.60
2022-08-02T12:45:51.080Z,26.70
2022-08-02T12:48:37.448Z,26.60
2022-08-02T12:51:23.531Z,26.30
2022-08-02T12:53:59.807Z,26.10
2022-08-02T12:56:30.383Z,26.20
2022-08-02T12:58:59.000Z,26.30
2022-08-02T13:01:28.865Z,26.40
2022-08-02T13:04:09.316Z,26.40
2022-08-02T13:06:43.880Z,26.40
2022-08-02T13:09:18.000Z,26.90
2022-08-02T13:11:46.195Z,27.10
2022-08-02T13:14:15.391Z,27.10
2022-08-02T13:16:45.819Z,27.00
2022-08-02T13:19:15.271Z,26.90
2022-08-02T13:22:01.877Z,26.70
2022-08-02T13:24:39.772Z,26.70
2022-08-02T13:27:09.898Z,26.50
2022-08-02T13:29:38.742Z,26.80
2022-08-02T13:32:07.284Z,26.60
2022-08-02T13:34:35.506Z,26.70
2022-08-02T13:37:04.439Z,26.80
2022-08-02T13:39:33.873Z,26.70
2022-08-02T13:42:01.969Z,26.90
2022-08-02T13:44:30.043Z,26.90
2022-08-02T13:46:58.407Z,27.00
2022-08-02T13:49:42.593Z,27.30
2022-08-02T13:52:15.077Z,27.40
2022-08-02T13:54:45.094Z,27.70
2022-08-02T13:57:13.414Z,28.00
2022-08-02T13:59:57.138Z,28.10
2022-08-02T14:02:28.643Z,27.90
2022-08-02T14:04:57.040Z,27.90
2022-08-02T14:07:25.268Z,27.70
2022-08-02T14:09:54.805Z,27.70
2022-08-02T14:12:22.887Z,28.20
2022-08-02T14:14:51.371Z,28.20
2022-08-02T14:17:19.936Z,27.90
2022-08-02T14:19:48.118Z,27.60
2022-08-02T14:22:16.538Z,27.60
2022-08-02T14:24:44.800Z,27.50
2022-08-02T14:27:15.559Z,27.40
2022-08-02T14:29:43.624Z,27.30
2022-08-02T14:32:12.144Z,27.50
2022-08-02T14:34:40.476Z,27.70
2022-08-02T14:37:08.576Z,28.00
2022-08-02T14:39:43.117Z,28.10
2022-08-02T14:42:26.294Z,27.90
2022-08-02T14:44:54.519Z,27.70
2022-08-02T14:47:22.529Z,27.40
2022-08-02T14:49:50.840Z,27.50
2022-08-02T14:52:19.609Z,27.50
2022-08-02T14:54:47.746Z,27.70
2022-08-02T14:57:18.838Z,27.70
2022-08-02T14:59:48.471Z,27.80
2022-08-02T15:02:16.949Z,28.10
2022-08-02T15:04:47.646Z,28.00
2022-08-02T15:07:15.690Z,28.20
2022-08-02T15:09:43.819Z,28.00
2022-08-02T15:12:12.909Z,28.00
2022-08-02T15:14:42.232Z,28.20
2022-08-02T15:17:12.262Z,28.10
2022-08-02T15:19:57.633Z,28.10
2022-08-02T15:22:29.471Z,27.90
2022-08-02T15:24:59.487Z,27.80
2022-08-02T15:27:27.638Z,27.90
2022-08-02T15:30:00.129Z,27.80
2022-08-02T15:32:30.181Z,27.70
2022-08-02T15:34:58.409Z,27.70
2022-08-02T15:37:30.755Z,27.80
2022-08-02T15:40:00.879Z,28.20
2022-08-02T15:42:30.664Z,28.30
2022-08-02T15:44:59.794Z,28.10
2022-08-02T15:47:29.395Z,28.10
2022-08-02T15:49:58.511Z,28.30
2022-08-02T15:52:27.112Z,27.70
2022-08-02T15:54:55.617Z,27.30
2022-08-02T15:57:24.071Z,27.30
2022-08-02T15:59:53.199Z,27.50
2022-08-02T16:02:21.402Z,27.60
2022-08-02T16:04:51.228Z,27.60
2022-08-02T16:07:19.340Z,27.70
2022-08-02T16:09:47.390Z,27.60
2022-08-02T16:12:16.021Z,27.60
2022-08-02T16:14:45.442Z,27.80
2022-08-02T16:17:13.591Z,27.70
2022-08-02T16:19:48.651Z,27.60
2022-08-02T16:22:19.268Z,27.70
2022-08-02T16:24:47.477Z,27.80
2022-08-02T16:27:16.103Z,27.60
2022-08-02T16:29:44.224Z,27.40
2022-08-02T16:32:15.089Z,27.50
2022-08-02T16:35:07.588Z,27.60
2022-08-02T16:37:51.890Z,27.60
2022-08-02T16:40:21.616Z,27.50
2022-08-02T16:45:38.190Z,27.40
2022-08-02T16:48:07.756Z,27.40
2022-08-02T16:50:37.905Z,27.30
2022-08-02T16:53:07.804Z,27.50
2022-08-02T16:55:36.853Z,27.50
2022-08-02T16:58:09.640Z,27.50
2022-08-02T17:00:38.544Z,27.60
2022-08-02T17:03:14.633Z,27.60
2022-08-02T17:05:56.002Z,27.10
2022-08-02T17:08:32.078Z,27.20
2022-08-02T17:11:03.722Z,27.10
2022-08-02T17:13:34.116Z,27.20
2022-08-02T17:16:20.966Z,27.20
2022-08-02T17:18:52.578Z,27.10
2022-08-02T17:21:20.768Z,27.10
2022-08-02T17:24:05.400Z,26.90
2022-08-02T17:26:38.948Z,26.70
2022-08-02T17:29:08.102Z,26.50
2022-08-02T17:32:05.632Z,26.40
2022-08-02T17:34:33.720Z,26.40
2022-08-02T17:37:02.186Z,26.30
2022-08-02T17:39:44.492Z,26.10
2022-08-02T17:42:23.482Z,26.20
2022-08-02T17:44:54.053Z,26.10
2022-08-02T17:47:23.244Z,26.00
2022-08-02T17:49:59.712Z,26.00
2022-08-02T17:52:50.720Z,26.00
2022-08-02T17:55:19.333Z,25.90
2022-08-02T18:00:37.030Z,25.60
2022-08-02T18:03:09.968Z,25.50
2022-08-02T18:05:39.660Z,25.50
2022-08-02T18:08:23.048Z,25.40
2022-08-02T18:10:53.592Z,25.40
2022-08-02T18:13:22.235Z,25.40
2022-08-02T18:15:52.373Z,25.30
2022-08-02T18:18:29.356Z,25.10
2022-08-02T18:21:15.854Z,25.00
2022-08-02T18:23:49.420Z,24.90
2022-08-02T18:26:20.848Z,24.90
2022-08-02T18:28:49.277Z,24.80
2022-08-02T18:31:22.650Z,24.70
2022-08-02T18:33:55.681Z,24.50
2022-08-02T18:36:29.775Z,24.30
2022-08-02T18:38:58.172Z,24.20
2022-08-02T18:41:28.714Z,24.20
2022-08-02T18:43:56.931Z,24.30
2022-08-02T18:46:30.004Z,24.20
2022-08-02T18:49:13.463Z,24.10
2022-08-02T18:51:43.816Z,24.10
2022-08-02T18:54:12.183Z,24.00
2022-08-02T18:56:47.506Z,24.00
2022-08-02T18:59:15.991Z,24.00
2022-08-02T19:01:50.924Z,23.90
2022-08-02T19:04:27.462Z,23.90
2022-08-02T19:07:03.892Z,23.90
2022-08-02T19:09:40.234Z,23.70
2022-08-02T19:12:12.249Z,23.60
2022-08-02T19:14:41.300Z,23.40
2022-08-02T19:19:58.465Z,23.30
2022-08-02T19:22:27.332Z,23.30
2022-08-02T19:24:59.960Z,23.30
2022-08-02T19:27:32.787Z,23.20
2022-08-02T19:30:02.814Z,23.10
2022-08-02T19:32:39.740Z,23.00
2022-08-02T19:35:30.797Z,22.90
2022-08-02T19:38:08.632Z,22.80
2022-08-02T19:40:36.903Z,22.70
2022-08-02T19:44:24.724Z,22.60
2022-08-02T19:45:57.047Z,22.60
2022-08-02T19:48:42.966Z,22.50
2022-08-02T19:51:14.293Z,22.50
2022-08-02T19:53:47.799Z,22.40
2022-08-02T19:56:25.374Z,22.40
2022-08-02T19:58:57.569Z,22.40
2022-08-02T20:01:36.803Z,22.30
2022-08-02T20:04:06.983Z,22.30
2022-08-02T20:06:36.729Z,22.30
2022-08-02T20:09:05.134Z,22.20
2022-08-02T20:11:35.780Z,22.20
2022-08-02T20:14:07.815Z,22.10
2022-08-02T20:16:36.561Z,22.20
2022-08-02T20:19:07.659Z,22.10
2022-08-02T20:21:38.167Z,22.00
2022-08-02T20:24:10.779Z,22.00
2022-08-02T20:32:23.452Z,21.90
2022-08-02T20:34:53.079Z,21.80
2022-08-02T20:37:55.963Z,21.70
2022-08-02T20:40:17.222Z,21.60
2022-08-02T20:42:47.925Z,21.60
2022-08-02T20:45:18.150Z,21.50
2022-08-02T20:47:50.906Z,21.40
2022-08-02T20:50:37.016Z,21.40
2022-08-02T20:53:06.250Z,21.30
2022-08-02T20:55:35.600Z,21.30
2022-08-02T20:58:04.444Z,21.20
2022-08-02T21:00:34.050Z,21.20
2022-08-02T21:03:04.318Z,21.10
2022-08-02T21:05:53.955Z,21.00
2022-08-02T21:08:21.768Z,21.00
2022-08-02T21:10:50.253Z,21.00
2022-08-02T21:13:22.788Z,20.90
2022-08-02T21:15:54.911Z,20.90
2022-08-02T21:18:37.162Z,20.90
2022-08-02T21:21:09.855Z,20.80
2022-08-02T21:23:38.512Z,20.80
2022-08-02T21:29:06.356Z,20.80
2022-08-02T21:31:36.718Z,20.70
2022-08-02T21:34:21.906Z,20.80
2022-08-02T21:36:50.625Z,20.80
2022-08-02T21:39:20.516Z,20.80
2022-08-02T21:41:49.248Z,20.80
2022-08-02T21:44:18.283Z,20.80
2022-08-02T21:46:49.449Z,20.80
2022-08-02T21:49:18.068Z,20.70
2022-08-02T21:51:49.837Z,20.70
2022-08-02T21:54:20.150Z,20.70
2022-08-02T21:56:50.145Z,20.60
2022-08-02T21:59:25.977Z,20.60
2022-08-02T22:01:57.076Z,20.60
2022-08-02T22:04:26.204Z,20.60
2022-08-02T22:06:54.934Z,20.70
2022-08-02T22:09:44.685Z,20.70
2022-08-02T22:12:16.675Z,20.70
2022-08-02T22:14:54.972Z,20.70
2022-08-02T22:17:50.570Z,20.70
2022-08-02T22:20:20.810Z,20.70
2022-08-02T22:22:50.661Z,20.70
2022-08-02T22:25:31.038Z,20.70
2022-08-02T22:28:35.422Z,20.70
2022-08-02T22:30:54.608Z,20.70
2022-08-02T22:33:42.431Z,20.70
2022-08-02T22:36:15.920Z,20.60
2022-08-02T22:38:44.837Z,20.50
2022-08-02T22:41:14.675Z,20.50
2022-08-02T22:43:43.860Z,20.50
2022-08-02T22:46:15.558Z,20.50
2022-08-02T22:48:45.955Z,20.50
2022-08-02T22:51:14.127Z,20.50
2022-08-02T22:53:43.427Z,20.50
2022-08-02T22:56:12.045Z,20.50
2022-08-02T22:58:41.285Z,25.70
2022-08-02T22:58:42.029Z,27.50
2022-08-02T22:58:47.513Z,23.40
2022-08-02T22:59:02.660Z,20.80
2022-08-02T22:59:06.518Z,21.90
2022-08-02T22:59:07.050Z,22.00
2022-08-02T23:01:28.712Z,20.40
2022-08-02T23:03:58.497Z,20.40
2022-08-02T23:06:26.657Z,20.30
2022-08-02T23:08:54.886Z,20.20
2022-08-02T23:11:23.165Z,20.20
2022-08-02T23:13:51.260Z,20.20
2022-08-02T23:16:37.867Z,20.10
2022-08-02T23:19:25.043Z,20.10
2022-08-02T23:22:02.580Z,20.10
2022-08-02T23:24:33.419Z,20.10
2022-08-02T23:27:04.097Z,20.10
2022-08-02T23:29:32.182Z,20.10
2022-08-02T23:32:01.218Z,20.10
2022-08-02T23:34:30.596Z,20.10
2022-08-02T23:36:58.805Z,20.00
2022-08-02T23:39:27.148Z,20.00
2022-08-02T23:41:55.983Z,20.10
2022-08-02T23:44:24.557Z,20.00
2022-08-02T23:46:56.482Z,20.00
2022-08-02T23:49:25.442Z,20.00
2022-08-02T23:52:01.054Z,20.00
2022-08-02T23:54:30.906Z,20.10
2022-08-02T23:56:59.242Z,20.10
2022-08-02T23:59:27.788Z,20.20
